Time;durP1;ratioP1;P1;durP2;ratioP2;P2;SDS_P1;SDS_P2;PMS_P1;PMS_P2;Temp;Humidity;BMP_temperature;BMP_pressure;BME280_temperature;BME280_humidity;BME280_pressure;Samples;Min_cycle;Max_cycle;Signal;HPM_P1;HPM_P2
2021/01/25 00:02:08;;;;;;;16.95;9.48;;;;;;;;;;6268224;22;20031;-86
2021/01/25 00:04:35;;;;;;;12.45;8.77;;;;;;;;;;6268056;22;20012;-86
2021/01/25 00:07:01;;;;;;;19.83;10.63;;;;;;;;;;6256289;22;20108;-86
2021/01/25 00:09:27;;;;;;;17.65;9.82;;;;;;;;;;6249010;23;20196;-86
2021/01/25 00:11:53;;;;;;;16.13;10.15;;;;;;;;;;6249784;23;20028;-86
2021/01/25 00:14:27;;;;;;;11.95;8.27;;;;;;;;;;6264397;22;20012;-86
2021/01/25 00:16:56;;;;;;;12.52;8.35;;;;;;;;;;6261981;22;20028;-86
2021/01/25 00:19:23;;;;;;;13.93;8.13;;;;;;;;;;6246716;23;20394;-86
2021/01/25 00:21:49;;;;;;;10.75;7.65;;;;;;;;;;6248289;23;20024;-86
2021/01/25 00:24:18;;;;;;;14.55;8.77;;;;;;;;;;6247506;23;20051;-85
2021/01/25 00:26:48;;;;;;;15.18;9.02;;;;;;;;;;6248973;23;20023;-86
2021/01/25 00:29:14;;;;;;;21.40;9.75;;;;;;;;;;6247248;23;20094;-86
2021/01/25 00:31:44;;;;;;;15.60;9.88;;;;;;;;;;6247987;23;20028;-86
2021/01/25 00:34:11;;;;;;;22.90;10.55;;;;;;;;;;6246998;23;20090;-86
2021/01/25 00:36:45;;;;;;;16.57;10.43;;;;;;;;;;6248326;22;20060;-86
2021/01/25 00:39:12;;;;;;;18.38;9.80;;;;;;;;;;6248156;23;20028;-86
2021/01/25 00:41:39;;;;;;;12.88;8.38;;;;;;;;;;6246213;23;20027;-86
2021/01/25 00:44:05;;;;;;;16.00;8.40;;;;;;;;;;6249374;23;20599;-86
2021/01/25 00:46:31;;;;;;;16.88;9.02;;;;;;;;;;6247103;23;20367;-86
2021/01/25 00:48:58;;;;;;;19.13;9.93;;;;;;;;;;6247300;23;20024;-86
2021/01/25 00:51:27;;;;;;;16.20;10.10;;;;;;;;;;6247630;23;20508;-86
2021/01/25 00:53:53;;;;;;;20.10;10.60;;;;;;;;;;6247250;23;20028;-86
2021/01/25 00:56:19;;;;;;;16.20;9.48;;;;;;;;;;6248576;23;20211;-85
2021/01/25 00:58:45;;;;;;;14.57;9.45;;;;;;;;;;6247315;23;20419;-86
2021/01/25 01:01:11;;;;;;;22.50;9.73;;;;;;;;;;6245632;23;20024;-86
2021/01/25 01:03:37;;;;;;;27.33;10.35;;;;;;;;;;6246424;23;20028;-86
2021/01/25 01:06:13;;;;;;;17.50;9.35;;;;;;;;;;6248218;23;20102;-86
2021/01/25 01:08:39;;;;;;;18.08;9.50;;;;;;;;;;6259268;22;20016;-86
2021/01/25 01:11:05;;;;;;;14.60;9.32;;;;;;;;;;6266004;22;20012;-86
2021/01/25 01:13:32;;;;;;;16.23;9.10;;;;;;;;;;6252924;22;20240;-86
2021/01/25 01:15:58;;;;;;;14.60;9.35;;;;;;;;;;6248720;22;20063;-86
2021/01/25 01:18:24;;;;;;;13.55;8.88;;;;;;;;;;6248488;23;20063;-86
2021/01/25 01:20:51;;;;;;;16.05;9.02;;;;;;;;;;6248172;23;20047;-86
2021/01/25 01:23:17;;;;;;;11.93;8.43;;;;;;;;;;6248271;23;20024;-86
2021/01/25 01:25:43;;;;;;;12.80;8.73;;;;;;;;;;6248877;23;20376;-86
2021/01/25 01:28:09;;;;;;;12.20;8.32;;;;;;;;;;6250565;23;20066;-86
2021/01/25 01:30:35;;;;;;;15.05;8.77;;;;;;;;;;6250307;23;20039;-85
2021/01/25 01:33:02;;;;;;;13.93;8.80;;;;;;;;;;6250881;23;20243;-86
2021/01/25 01:35:28;;;;;;;14.73;9.45;;;;;;;;;;6249678;23;20047;-86
2021/01/25 01:38:03;;;;;;;14.13;8.50;;;;;;;;;;6249575;23;20028;-86
2021/01/25 01:40:29;;;;;;;15.88;9.40;;;;;;;;;;6250369;22;20439;-86
2021/01/25 01:42:55;;;;;;;19.95;10.13;;;;;;;;;;6274139;22;20082;-86
2021/01/25 01:45:22;;;;;;;16.00;9.07;;;;;;;;;;6249883;23;20078;-86
2021/01/25 01:47:48;;;;;;;18.33;8.57;;;;;;;;;;6248360;23;20027;-86
2021/01/25 01:50:15;;;;;;;12.70;9.00;;;;;;;;;;6250822;23;20024;-86
2021/01/25 01:52:41;;;;;;;20.00;9.85;;;;;;;;;;6250794;23;20052;-86
2021/01/25 01:55:08;;;;;;;13.13;8.68;;;;;;;;;;6250119;22;20038;-85
2021/01/25 01:57:34;;;;;;;12.88;9.25;;;;;;;;;;6248568;23;20191;-86
2021/01/25 02:00:02;;;;;;;16.25;10.13;;;;;;;;;;6266675;22;20012;-85
2021/01/25 02:02:29;;;;;;;15.45;9.05;;;;;;;;;;6266793;23;20027;-85
2021/01/25 02:04:56;;;;;;;19.05;10.85;;;;;;;;;;6268024;22;20235;-85
2021/01/25 02:07:22;;;;;;;15.43;10.45;;;;;;;;;;6261117;23;20075;-86
2021/01/25 02:09:49;;;;;;;17.58;10.80;;;;;;;;;;6259758;23;20024;-85
2021/01/25 02:12:17;;;;;;;24.95;12.82;;;;;;;;;;6255964;22;20028;-85
2021/01/25 02:14:45;;;;;;;23.05;13.32;;;;;;;;;;6253595;23;20028;-85
2021/01/25 02:17:12;;;;;;;24.20;13.18;;;;;;;;;;6250680;23;20076;-85
2021/01/25 02:19:54;;;;;;;24.75;14.60;;;;;;;;;;6252207;23;20074;-87
2021/01/25 02:22:35;;;;;;;21.02;13.15;;;;;;;;;;6251359;23;20024;-85
2021/01/25 02:25:15;;;;;;;30.17;14.55;;;;;;;;;;6251160;23;20034;-85
2021/01/25 02:27:45;;;;;;;22.05;13.38;;;;;;;;;;6250145;23;20081;-85
2021/01/25 02:30:12;;;;;;;26.90;14.00;;;;;;;;;;6249684;23;20023;-85
2021/01/25 02:32:39;;;;;;;29.15;15.05;;;;;;;;;;6249153;23;20176;-85
2021/01/25 02:35:07;;;;;;;25.27;13.45;;;;;;;;;;6248047;23;20028;-85
2021/01/25 02:37:34;;;;;;;20.30;11.90;;;;;;;;;;6248851;23;20168;-86
2021/01/25 02:40:01;;;;;;;18.67;10.88;;;;;;;;;;6250870;23;20035;-86
2021/01/25 02:42:27;;;;;;;19.02;11.95;;;;;;;;;;6249186;23;20139;-85
2021/01/25 02:44:54;;;;;;;21.25;12.13;;;;;;;;;;6251187;22;20135;-85
2021/01/25 02:47:21;;;;;;;18.60;11.63;;;;;;;;;;6250482;23;20509;-86
2021/01/25 02:49:48;;;;;;;19.23;12.32;;;;;;;;;;6248924;23;20024;-86
2021/01/25 02:52:14;;;;;;;22.40;13.93;;;;;;;;;;6250529;23;20078;-86
2021/01/25 02:54:41;;;;;;;28.30;14.85;;;;;;;;;;6258949;22;20053;-85
2021/01/25 02:57:08;;;;;;;31.48;14.85;;;;;;;;;;6267676;22;20012;-85
2021/01/25 02:59:35;;;;;;;34.63;16.08;;;;;;;;;;6269382;23;20023;-85
2021/01/25 03:02:02;;;;;;;32.70;16.58;;;;;;;;;;6268986;22;20032;-85
2021/01/25 03:04:33;;;;;;;30.35;17.85;;;;;;;;;;6268743;22;20012;-86
2021/01/25 03:07:00;;;;;;;24.35;14.18;;;;;;;;;;6269164;22;20015;-86
2021/01/25 03:09:32;;;;;;;33.15;15.43;;;;;;;;;;6265995;22;20082;-85
2021/01/25 03:12:02;;;;;;;27.30;16.60;;;;;;;;;;6268230;22;20076;-84
2021/01/25 03:14:28;;;;;;;28.80;15.05;;;;;;;;;;6269015;22;20028;-86
2021/01/25 03:16:55;;;;;;;29.10;16.33;;;;;;;;;;6269702;22;20016;-86
2021/01/25 03:19:21;;;;;;;30.67;17.13;;;;;;;;;;6263044;22;20024;-86
2021/01/25 03:21:54;;;;;;;35.13;18.25;;;;;;;;;;6259236;22;20066;-85
2021/01/25 03:24:20;;;;;;;27.15;16.05;;;;;;;;;;6268937;22;20035;-86
2021/01/25 03:26:47;;;;;;;40.75;21.85;;;;;;;;;;6260354;22;20394;-86
2021/01/25 03:29:13;;;;;;;40.35;20.10;;;;;;;;;;6253110;23;20047;-86
2021/01/25 03:31:39;;;;;;;40.90;21.13;;;;;;;;;;6251317;22;20039;-86
2021/01/25 03:34:06;;;;;;;34.58;19.90;;;;;;;;;;6249972;23;20062;-85
2021/01/25 03:36:33;;;;;;;29.70;16.95;;;;;;;;;;6250497;23;20028;-86
2021/01/25 03:38:59;;;;;;;33.38;18.52;;;;;;;;;;6251441;22;20349;-85
2021/01/25 03:41:29;;;;;;;40.45;22.00;;;;;;;;;;6249395;23;20024;-86
2021/01/25 03:43:55;;;;;;;43.92;22.50;;;;;;;;;;6249032;23;20118;-85
2021/01/25 03:46:21;;;;;;;38.13;19.83;;;;;;;;;;6249113;23;20024;-85
2021/01/25 03:48:47;;;;;;;33.85;19.05;;;;;;;;;;6248311;23;20055;-85
2021/01/25 03:51:19;;;;;;;39.28;22.17;;;;;;;;;;6247672;23;20028;-85
2021/01/25 03:53:45;;;;;;;47.42;22.65;;;;;;;;;;6250316;23;20024;-85
2021/01/25 03:56:11;;;;;;;44.30;25.02;;;;;;;;;;6246095;23;20024;-85
2021/01/25 03:58:37;;;;;;;53.25;25.63;;;;;;;;;;6248770;22;20020;-85
2021/01/25 04:01:07;;;;;;;51.22;25.40;;;;;;;;;;6248511;23;20024;-85
2021/01/25 04:03:33;;;;;;;46.20;24.30;;;;;;;;;;6249386;23;20024;-85
2021/01/25 04:06:00;;;;;;;41.45;21.02;;;;;;;;;;6248300;23;20199;-85
2021/01/25 04:08:26;;;;;;;37.47;20.65;;;;;;;;;;6249770;23;20062;-85
2021/01/25 04:10:55;;;;;;;40.72;21.42;;;;;;;;;;6250606;22;20028;-86
2021/01/25 04:13:21;;;;;;;40.22;21.83;;;;;;;;;;6250947;23;20071;-86
2021/01/25 04:15:50;;;;;;;40.13;21.33;;;;;;;;;;6252726;23;20084;-85
2021/01/25 04:18:19;;;;;;;48.80;23.60;;;;;;;;;;6255730;23;20051;-85
2021/01/25 04:20:45;;;;;;;54.30;25.75;;;;;;;;;;6266772;23;20012;-85
2021/01/25 04:23:12;;;;;;;49.38;25.55;;;;;;;;;;6266030;22;20051;-87
2021/01/25 04:25:40;;;;;;;51.65;26.73;;;;;;;;;;6248480;23;20102;-86
2021/01/25 04:28:06;;;;;;;51.72;26.42;;;;;;;;;;6251851;23;20059;-86
2021/01/25 04:30:32;;;;;;;45.53;25.98;;;;;;;;;;6254549;23;20055;-86
2021/01/25 04:32:58;;;;;;;46.28;25.50;;;;;;;;;;6255724;22;20285;-86
2021/01/25 04:35:25;;;;;;;46.05;26.73;;;;;;;;;;6266554;22;20035;-86
2021/01/25 04:37:51;;;;;;;40.88;24.10;;;;;;;;;;6267841;22;20028;-85
2021/01/25 04:40:17;;;;;;;41.13;22.92;;;;;;;;;;6267816;22;20036;-86
2021/01/25 04:42:44;;;;;;;45.70;24.20;;;;;;;;;;6265820;22;20121;-86
2021/01/25 04:45:11;;;;;;;44.00;24.60;;;;;;;;;;6251427;23;20035;-86
2021/01/25 04:47:40;;;;;;;44.42;23.65;;;;;;;;;;6249593;23;20088;-86
2021/01/25 04:50:07;;;;;;;53.58;26.98;;;;;;;;;;6250255;23;20028;-86
2021/01/25 04:52:34;;;;;;;60.13;29.67;;;;;;;;;;6250580;23;20034;-86
2021/01/25 04:55:01;;;;;;;68.65;32.30;;;;;;;;;;6247634;23;20027;-85
2021/01/25 04:57:28;;;;;;;64.60;31.90;;;;;;;;;;6247915;23;20291;-85
2021/01/25 04:59:54;;;;;;;61.63;30.90;;;;;;;;;;6249182;23;20031;-85
2021/01/25 05:02:20;;;;;;;64.90;32.13;;;;;;;;;;6246140;23;20024;-85
2021/01/25 05:04:47;;;;;;;60.28;29.70;;;;;;;;;;6246657;23;20310;-86
2021/01/25 05:07:13;;;;;;;60.13;29.90;;;;;;;;;;6248543;23;20031;-86
2021/01/25 05:09:39;;;;;;;63.85;30.00;;;;;;;;;;6245852;23;20024;-86
2021/01/25 05:12:06;;;;;;;68.03;29.65;;;;;;;;;;6246815;22;20016;-86
2021/01/25 05:14:39;;;;;;;58.35;30.40;;;;;;;;;;6247913;23;20291;-85
2021/01/25 05:17:09;;;;;;;64.70;31.15;;;;;;;;;;6251871;23;20028;-85
2021/01/25 05:19:40;;;;;;;53.53;28.88;;;;;;;;;;6252016;23;20034;-86
2021/01/25 05:22:19;;;;;;;60.63;31.38;;;;;;;;;;6250740;23;20032;-85
2021/01/25 05:24:49;;;;;;;60.47;31.95;;;;;;;;;;6249245;23;20032;-86
2021/01/25 05:27:23;;;;;;;73.18;33.80;;;;;;;;;;6248250;23;20441;-85
2021/01/25 05:29:49;;;;;;;60.80;32.60;;;;;;;;;;6247659;23;20082;-86
2021/01/25 05:32:18;;;;;;;71.30;33.88;;;;;;;;;;6247536;23;20031;-86
2021/01/25 05:34:45;;;;;;;67.10;34.00;;;;;;;;;;6250426;23;20191;-86
2021/01/25 05:37:16;;;;;;;57.08;31.48;;;;;;;;;;6246201;23;20056;-86
2021/01/25 05:39:43;;;;;;;62.60;31.40;;;;;;;;;;6244657;23;20028;-85
2021/01/25 05:42:10;;;;;;;59.22;31.98;;;;;;;;;;6246207;23;20103;-86
2021/01/25 05:44:39;;;;;;;64.82;32.47;;;;;;;;;;6247384;23;20046;-85
2021/01/25 05:47:10;;;;;;;61.40;30.48;;;;;;;;;;6244174;23;20314;-86
2021/01/25 05:49:37;;;;;;;61.75;31.75;;;;;;;;;;6244685;23;20099;-86
2021/01/25 05:52:04;;;;;;;59.40;31.00;;;;;;;;;;6244602;22;20032;-86
2021/01/25 05:54:32;;;;;;;62.90;32.45;;;;;;;;;;6245219;23;20036;-86
2021/01/25 05:56:58;;;;;;;60.13;30.65;;;;;;;;;;6244687;23;20378;-86
2021/01/25 05:59:25;;;;;;;58.05;31.88;;;;;;;;;;6243474;23;20028;-86
2021/01/25 06:01:53;;;;;;;59.53;30.00;;;;;;;;;;6242599;23;20076;-86
2021/01/25 06:04:21;;;;;;;57.83;31.02;;;;;;;;;;6243464;23;20107;-86
2021/01/25 06:07:01;;;;;;;57.72;30.13;;;;;;;;;;6243718;23;20204;-86
2021/01/25 06:09:40;;;;;;;58.00;30.13;;;;;;;;;;6246959;23;20066;-86
2021/01/25 06:12:09;;;;;;;57.90;29.42;;;;;;;;;;6243340;23;20089;-86
2021/01/25 06:14:38;;;;;;;63.53;31.30;;;;;;;;;;6245398;23;20028;-86
2021/01/25 06:17:06;;;;;;;72.22;35.13;;;;;;;;;;6247279;23;20090;-86
2021/01/25 06:19:33;;;;;;;72.22;33.97;;;;;;;;;;6248000;23;20039;-86
2021/01/25 06:22:03;;;;;;;73.78;34.53;;;;;;;;;;6251739;23;20080;-86
2021/01/25 06:24:30;;;;;;;77.13;38.35;;;;;;;;;;6249586;23;20482;-86
2021/01/25 06:27:00;;;;;;;68.65;36.20;;;;;;;;;;6251408;23;20278;-87
2021/01/25 06:29:26;;;;;;;70.05;35.03;;;;;;;;;;6247430;23;20382;-86
2021/01/25 06:31:57;;;;;;;72.18;35.80;;;;;;;;;;6273396;22;20032;-87
2021/01/25 06:34:25;;;;;;;66.53;34.05;;;;;;;;;;6248027;22;20039;-86
2021/01/25 06:37:00;;;;;;;71.43;36.40;;;;;;;;;;6249461;23;20296;-86
2021/01/25 06:39:27;;;;;;;74.45;36.65;;;;;;;;;;6246929;23;20036;-86
2021/01/25 06:42:01;;;;;;;77.13;37.08;;;;;;;;;;6243100;23;20051;-86
2021/01/25 06:44:34;;;;;;;78.07;36.22;;;;;;;;;;6245903;23;20090;-86
2021/01/25 06:47:02;;;;;;;72.18;36.20;;;;;;;;;;6253507;22;20132;-85
2021/01/25 06:49:29;;;;;;;66.15;33.47;;;;;;;;;;6263955;22;20029;-86
2021/01/25 06:51:56;;;;;;;63.00;31.65;;;;;;;;;;6264027;22;20070;-86
2021/01/25 06:54:26;;;;;;;70.57;35.20;;;;;;;;;;6250437;22;20236;-86
2021/01/25 06:56:56;;;;;;;68.25;33.90;;;;;;;;;;6267381;22;20111;-86
2021/01/25 06:59:23;;;;;;;59.92;33.60;;;;;;;;;;6246101;23;20038;-86
2021/01/25 07:01:51;;;;;;;58.10;30.35;;;;;;;;;;6262625;22;20397;-87
2021/01/25 07:04:18;;;;;;;69.88;32.30;;;;;;;;;;6262707;22;20031;-86
2021/01/25 07:06:53;;;;;;;65.20;31.63;;;;;;;;;;6256096;22;20044;-86
2021/01/25 07:09:31;;;;;;;63.17;30.67;;;;;;;;;;6263488;22;20016;-86
2021/01/25 07:11:58;;;;;;;54.20;29.58;;;;;;;;;;6254172;22;20032;-86
2021/01/25 07:14:26;;;;;;;62.67;31.08;;;;;;;;;;6247254;23;20320;-86
2021/01/25 07:16:53;;;;;;;56.40;29.77;;;;;;;;;;6245467;23;20052;-86
2021/01/25 07:19:20;;;;;;;69.47;32.17;;;;;;;;;;6246987;23;20055;-86
2021/01/25 07:21:49;;;;;;;70.72;33.97;;;;;;;;;;6249667;23;20084;-86
2021/01/25 07:24:23;;;;;;;69.25;34.42;;;;;;;;;;6247889;23;20337;-86
2021/01/25 07:26:51;;;;;;;73.03;35.80;;;;;;;;;;6246774;23;20035;-87
2021/01/25 07:29:18;;;;;;;68.13;34.65;;;;;;;;;;6247070;23;20028;-85
2021/01/25 07:31:45;;;;;;;78.38;37.17;;;;;;;;;;6245000;23;20039;-87
2021/01/25 07:34:12;;;;;;;89.65;41.28;;;;;;;;;;6268094;22;20090;-87
2021/01/25 07:36:45;;;;;;;94.25;41.58;;;;;;;;;;6242113;23;20055;-86
2021/01/25 07:39:12;;;;;;;98.40;41.97;;;;;;;;;;6244691;23;20031;-86
2021/01/25 07:41:39;;;;;;;93.43;42.90;;;;;;;;;;6244688;23;20149;-86
2021/01/25 07:44:06;;;;;;;96.63;44.15;;;;;;;;;;6243466;22;20119;-86
2021/01/25 07:46:32;;;;;;;88.93;43.15;;;;;;;;;;6241648;23;20074;-86
2021/01/25 07:48:58;;;;;;;92.00;43.53;;;;;;;;;;6241310;22;20024;-86
2021/01/25 07:51:35;;;;;;;84.38;42.42;;;;;;;;;;6245552;22;20028;-86
2021/01/25 07:54:02;;;;;;;97.88;43.83;;;;;;;;;;6244252;23;20058;-86
2021/01/25 07:56:28;;;;;;;92.60;41.38;;;;;;;;;;6241133;22;20028;-87
2021/01/25 07:59:06;;;;;;;86.63;44.53;;;;;;;;;;6242543;23;20530;-86
2021/01/25 08:01:51;;;;;;;112.35;48.85;;;;;;;;;;6242004;23;20032;-86
2021/01/25 08:04:23;;;;;;;116.60;51.22;;;;;;;;;;6244084;23;20116;-86
2021/01/25 08:06:52;;;;;;;98.70;47.67;;;;;;;;;;6243363;23;20190;-86
2021/01/25 08:09:21;;;;;;;98.22;47.53;;;;;;;;;;6248305;23;20024;-86
2021/01/25 08:11:48;;;;;;;83.43;44.35;;;;;;;;;;6243655;22;20051;-86
2021/01/25 08:14:37;;;;;;;58.58;36.92;;;;;;;;;;6245408;23;20031;-85
2021/01/25 08:17:09;;;;;;;49.88;30.77;;;;;;;;;;6243713;23;20047;-87
2021/01/25 08:19:57;;;;;;;29.77;22.25;;;;;;;;;;6243285;23;20079;-86
2021/01/25 08:22:31;;;;;;;37.28;25.20;;;;;;;;;;6241313;23;20223;-85
2021/01/25 08:24:59;;;;;;;28.00;20.17;;;;;;;;;;6243872;23;20047;-86
2021/01/25 08:27:26;;;;;;;33.33;23.67;;;;;;;;;;6244000;23;20417;-86
2021/01/25 08:30:30;;;;;;;35.10;23.67;;;;;;;;;;6240268;23;20026;-86
2021/01/25 08:33:04;;;;;;;31.67;19.75;;;;;;;;;;6242938;23;20031;-86
2021/01/25 08:35:40;;;;;;;25.92;18.85;;;;;;;;;;6246030;23;20063;-86
2021/01/25 08:38:14;;;;;;;28.83;20.55;;;;;;;;;;6246289;23;20078;-85
2021/01/25 08:40:41;;;;;;;30.10;20.35;;;;;;;;;;6245817;23;20199;-84
2021/01/25 08:43:34;;;;;;;33.63;21.15;;;;;;;;;;6243587;22;20492;-86
2021/01/25 08:46:13;;;;;;;36.50;20.05;;;;;;;;;;6245661;23;20035;-87
2021/01/25 08:48:43;;;;;;;32.03;19.85;;;;;;;;;;6248946;23;20347;-86
2021/01/25 08:51:13;;;;;;;28.10;19.58;;;;;;;;;;6245513;23;20234;-86
2021/01/25 08:53:39;;;;;;;29.85;19.50;;;;;;;;;;6242719;23;20265;-86
2021/01/25 08:56:19;;;;;;;27.30;19.02;;;;;;;;;;6241774;23;20052;-87
2021/01/25 08:58:45;;;;;;;28.85;19.23;;;;;;;;;;6240105;23;20150;-86
2021/01/25 09:01:20;;;;;;;31.38;20.00;;;;;;;;;;6243008;23;20086;-86
2021/01/25 09:03:48;;;;;;;29.27;18.88;;;;;;;;;;6245665;23;20176;-86
2021/01/25 09:06:14;;;;;;;30.63;20.70;;;;;;;;;;6244823;22;20075;-86
2021/01/25 09:08:40;;;;;;;31.13;19.80;;;;;;;;;;6244448;22;20343;-87
2021/01/25 09:11:07;;;;;;;29.33;19.67;;;;;;;;;;6244090;23;20174;-86
2021/01/25 09:13:36;;;;;;;32.20;19.70;;;;;;;;;;6243307;23;20109;-85
2021/01/25 09:16:10;;;;;;;31.85;20.27;;;;;;;;;;6243073;23;20284;-86
2021/01/25 09:18:37;;;;;;;31.17;19.50;;;;;;;;;;6241417;23;20024;-86
2021/01/25 09:21:05;;;;;;;29.60;20.33;;;;;;;;;;6243224;23;20024;-86
2021/01/25 09:26:11;;;;;;;33.05;20.25;;;;;;;;;;6231708;22;20027;-85
2021/01/25 09:28:40;;;;;;;30.17;20.90;;;;;;;;;;6243732;23;20028;-86
2021/01/25 09:31:06;;;;;;;28.70;19.38;;;;;;;;;;6214124;23;20028;-86
2021/01/25 09:33:33;;;;;;;27.65;18.95;;;;;;;;;;6222078;23;20050;-87
2021/01/25 09:36:07;;;;;;;30.30;20.70;;;;;;;;;;6245343;23;20111;-86
2021/01/25 09:38:34;;;;;;;35.78;21.40;;;;;;;;;;6240786;23;20031;-87
2021/01/25 09:41:00;;;;;;;31.27;19.75;;;;;;;;;;6210216;23;20036;-87
2021/01/25 09:43:27;;;;;;;32.35;20.52;;;;;;;;;;6238402;23;20331;-82
2021/01/25 09:45:53;;;;;;;32.97;20.52;;;;;;;;;;6214983;23;20035;-82
2021/01/25 09:48:19;;;;;;;34.53;20.63;;;;;;;;;;6215599;23;20055;-83
2021/01/25 09:50:48;;;;;;;28.83;18.58;;;;;;;;;;6216293;23;20051;-83
2021/01/25 09:53:15;;;;;;;34.58;21.60;;;;;;;;;;6241501;23;20052;-83
2021/01/25 09:55:41;;;;;;;30.55;19.98;;;;;;;;;;6244016;23;20024;-83
2021/01/25 09:58:07;;;;;;;34.92;21.45;;;;;;;;;;6234608;23;20122;-83
2021/01/25 10:00:45;;;;;;;35.95;21.02;;;;;;;;;;6222582;23;20158;-83
2021/01/25 10:03:32;;;;;;;33.72;20.40;;;;;;;;;;6217356;23;20091;-83
2021/01/25 10:05:59;;;;;;;30.13;19.90;;;;;;;;;;6216611;23;20024;-83
2021/01/25 10:08:25;;;;;;;29.60;19.10;;;;;;;;;;6215802;23;20402;-83
2021/01/25 10:10:52;;;;;;;30.83;19.23;;;;;;;;;;6213071;23;20313;-84
2021/01/25 10:13:18;;;;;;;28.25;18.33;;;;;;;;;;6241320;23;20413;-84
2021/01/25 10:15:45;;;;;;;32.92;19.00;;;;;;;;;;6242936;23;20123;-83
2021/01/25 10:18:11;;;;;;;31.92;20.15;;;;;;;;;;6214802;23;20120;-83
2021/01/25 10:20:37;;;;;;;26.83;17.35;;;;;;;;;;6214398;23;20117;-83
2021/01/25 10:23:26;;;;;;;30.73;19.42;;;;;;;;;;6243554;23;20292;-83
2021/01/25 10:26:21;;;;;;;29.65;17.73;;;;;;;;;;6207386;23;20068;-84
2021/01/25 10:31:33;;;;;;;26.63;17.70;;;;;;;;;;6229041;22;20032;-83
2021/01/25 10:34:02;;;;;;;23.60;16.25;;;;;;;;;;6229322;23;20056;-84
2021/01/25 10:36:32;;;;;;;26.40;16.67;;;;;;;;;;6233708;22;20012;-84
2021/01/25 10:38:59;;;;;;;22.40;15.93;;;;;;;;;;6227176;22;20047;-84
2021/01/25 10:41:35;;;;;;;23.63;15.30;;;;;;;;;;6230022;22;20036;-84
2021/01/25 10:44:06;;;;;;;22.25;15.45;;;;;;;;;;6224863;22;20025;-84
2021/01/25 10:46:33;;;;;;;24.40;15.02;;;;;;;;;;6209742;23;20016;-83
2021/01/25 10:49:00;;;;;;;23.70;14.95;;;;;;;;;;6210451;23;20024;-84
2021/01/25 10:51:26;;;;;;;22.80;13.90;;;;;;;;;;6213476;23;20040;-84
2021/01/25 10:53:54;;;;;;;22.17;14.77;;;;;;;;;;6207659;23;20028;-84
2021/01/25 10:56:20;;;;;;;21.55;13.95;;;;;;;;;;6208300;23;20040;-84
2021/01/25 10:58:52;;;;;;;21.05;13.57;;;;;;;;;;6209130;23;20141;-84
2021/01/25 11:01:18;;;;;;;19.58;14.05;;;;;;;;;;6211434;23;20421;-84
2021/01/25 11:03:47;;;;;;;23.95;14.32;;;;;;;;;;6213139;23;20029;-84
2021/01/25 11:06:15;;;;;;;21.30;12.93;;;;;;;;;;6212167;23;20035;-83
2021/01/25 11:08:41;;;;;;;18.40;12.25;;;;;;;;;;6210630;23;20321;-83
2021/01/25 11:11:07;;;;;;;20.65;13.93;;;;;;;;;;6207644;23;20040;-83
2021/01/25 11:13:34;;;;;;;21.50;12.65;;;;;;;;;;6208151;23;20028;-84
2021/01/25 11:16:00;;;;;;;18.67;11.52;;;;;;;;;;6219003;23;20025;-84
2021/01/25 11:18:28;;;;;;;20.35;13.07;;;;;;;;;;6228434;23;20148;-84
2021/01/25 11:20:59;;;;;;;21.90;14.43;;;;;;;;;;6219747;23;20025;-84
2021/01/25 11:23:26;;;;;;;18.05;12.38;;;;;;;;;;6213925;23;20028;-84
2021/01/25 11:25:53;;;;;;;21.45;12.85;;;;;;;;;;6210882;23;20039;-84
2021/01/25 11:28:20;;;;;;;19.48;12.60;;;;;;;;;;6211956;23;20029;-84
2021/01/25 11:31:11;;;;;;;22.88;12.45;;;;;;;;;;6235898;23;20089;-83
2021/01/25 11:33:44;;;;;;;20.25;11.52;;;;;;;;;;6219477;23;20245;-83
2021/01/25 11:36:11;;;;;;;14.48;10.70;;;;;;;;;;6221443;23;20024;-83
2021/01/25 11:38:39;;;;;;;15.75;10.48;;;;;;;;;;6243803;23;20024;-83
2021/01/25 11:41:09;;;;;;;16.42;10.30;;;;;;;;;;6214397;23;20287;-83
2021/01/25 11:43:35;;;;;;;17.00;10.10;;;;;;;;;;6240092;23;20121;-84
2021/01/25 11:46:02;;;;;;;17.50;10.50;;;;;;;;;;6240013;23;20028;-83
2021/01/25 11:48:28;;;;;;;18.77;11.00;;;;;;;;;;6227948;22;20043;-83
2021/01/25 11:50:54;;;;;;;17.95;9.88;;;;;;;;;;6259574;22;20028;-83
2021/01/25 11:53:21;;;;;;;17.70;10.77;;;;;;;;;;6259357;22;20073;-84
2021/01/25 11:55:48;;;;;;;13.07;9.18;;;;;;;;;;6217277;23;20025;-83
2021/01/25 11:58:15;;;;;;;15.40;8.73;;;;;;;;;;6214024;23;20123;-84
2021/01/25 12:00:41;;;;;;;15.35;9.98;;;;;;;;;;6216113;23;20131;-83
2021/01/25 12:03:07;;;;;;;14.13;9.30;;;;;;;;;;6216455;23;20066;-84
2021/01/25 12:05:33;;;;;;;13.93;9.13;;;;;;;;;;6214611;23;20139;-84
2021/01/25 12:08:00;;;;;;;14.73;9.52;;;;;;;;;;6211686;23;20084;-84
2021/01/25 12:10:26;;;;;;;12.50;8.00;;;;;;;;;;6237868;23;20067;-84
2021/01/25 12:12:53;;;;;;;13.13;8.45;;;;;;;;;;6214744;22;20024;-84
2021/01/25 12:15:22;;;;;;;11.40;8.30;;;;;;;;;;6212101;23;20024;-84
2021/01/25 12:17:48;;;;;;;14.85;8.52;;;;;;;;;;6209200;23;20024;-84
2021/01/25 12:20:16;;;;;;;14.93;9.15;;;;;;;;;;6217154;23;20322;-84
2021/01/25 12:22:45;;;;;;;13.40;8.88;;;;;;;;;;6242389;23;20107;-84
2021/01/25 12:25:12;;;;;;;15.77;9.43;;;;;;;;;;6240514;23;20097;-83
2021/01/25 12:30:15;;;;;;;13.73;8.40;;;;;;;;;;6231339;22;20138;-84
2021/01/25 12:32:44;;;;;;;12.02;8.45;;;;;;;;;;6214150;23;20035;-83
2021/01/25 12:35:13;;;;;;;15.10;8.63;;;;;;;;;;6214628;23;20043;-83
2021/01/25 12:37:39;;;;;;;18.92;9.98;;;;;;;;;;6240734;23;20111;-83
2021/01/25 12:40:06;;;;;;;17.65;8.90;;;;;;;;;;6238716;23;20382;-84
2021/01/25 12:42:33;;;;;;;15.43;9.45;;;;;;;;;;6240470;23;20055;-84
2021/01/25 12:45:07;;;;;;;14.73;8.63;;;;;;;;;;6241044;23;20071;-83
2021/01/25 12:47:33;;;;;;;17.15;9.48;;;;;;;;;;6233164;22;20198;-84
2021/01/25 12:50:02;;;;;;;14.43;9.13;;;;;;;;;;6255108;22;20024;-84
2021/01/25 12:52:30;;;;;;;15.05;9.50;;;;;;;;;;6214136;23;20268;-84
2021/01/25 12:54:57;;;;;;;19.90;9.90;;;;;;;;;;6211746;23;20024;-84
2021/01/25 12:57:23;;;;;;;13.77;9.10;;;;;;;;;;6239426;23;20035;-84
2021/01/25 12:59:49;;;;;;;15.00;9.13;;;;;;;;;;6215271;23;20024;-83
2021/01/25 13:02:15;;;;;;;15.10;8.00;;;;;;;;;;6216871;23;20244;-84
2021/01/25 13:04:41;;;;;;;16.02;8.90;;;;;;;;;;6211724;23;20371;-84
2021/01/25 13:07:10;;;;;;;14.63;8.65;;;;;;;;;;6240174;23;20059;-84
2021/01/25 13:09:36;;;;;;;16.10;8.93;;;;;;;;;;6214265;23;20024;-83
2021/01/25 13:12:02;;;;;;;15.07;8.93;;;;;;;;;;6239628;23;20314;-83
2021/01/25 13:14:28;;;;;;;13.85;8.30;;;;;;;;;;6213469;23;20032;-83
2021/01/25 13:16:55;;;;;;;14.43;8.13;;;;;;;;;;6213111;23;20369;-83
2021/01/25 13:19:21;;;;;;;15.43;8.70;;;;;;;;;;6216311;23;20024;-84
2021/01/25 13:21:47;;;;;;;12.73;8.82;;;;;;;;;;6213242;23;20377;-83
2021/01/25 13:24:13;;;;;;;15.90;8.95;;;;;;;;;;6211991;23;20214;-83
2021/01/25 13:26:39;;;;;;;17.40;8.40;;;;;;;;;;6210741;23;20107;-84
2021/01/25 13:29:05;;;;;;;17.83;8.52;;;;;;;;;;6237963;23;20315;-83
2021/01/25 13:31:32;;;;;;;13.75;8.32;;;;;;;;;;6239027;23;20188;-83
2021/01/25 13:33:58;;;;;;;14.48;8.02;;;;;;;;;;6212780;23;20046;-83
2021/01/25 13:36:28;;;;;;;15.43;7.78;;;;;;;;;;6216087;23;20055;-83
2021/01/25 13:38:58;;;;;;;14.25;8.10;;;;;;;;;;6242279;23;20194;-83
2021/01/25 13:41:24;;;;;;;13.98;8.18;;;;;;;;;;6214777;23;20032;-84
2021/01/25 13:43:52;;;;;;;16.67;8.25;;;;;;;;;;6219299;23;20343;-84
2021/01/25 13:46:18;;;;;;;14.00;7.70;;;;;;;;;;6215919;23;20572;-84
2021/01/25 13:48:44;;;;;;;13.30;8.30;;;;;;;;;;6215801;23;20086;-84
2021/01/25 13:51:11;;;;;;;13.40;7.55;;;;;;;;;;6214128;23;20327;-84
2021/01/25 13:53:38;;;;;;;14.13;7.50;;;;;;;;;;6215860;23;20036;-84
2021/01/25 13:56:06;;;;;;;16.42;7.32;;;;;;;;;;6241890;23;20233;-84
2021/01/25 13:58:33;;;;;;;13.95;7.43;;;;;;;;;;6212912;23;20342;-84
2021/01/25 14:00:59;;;;;;;14.32;7.50;;;;;;;;;;6212801;23;20314;-84
2021/01/25 14:03:26;;;;;;;11.90;7.60;;;;;;;;;;6216369;23;20110;-84
2021/01/25 14:05:52;;;;;;;10.98;7.15;;;;;;;;;;6260494;22;20047;-84
2021/01/25 14:08:19;;;;;;;12.95;7.82;;;;;;;;;;6260282;22;20115;-84
2021/01/25 14:10:49;;;;;;;12.18;6.75;;;;;;;;;;6222524;23;20020;-84
2021/01/25 14:13:16;;;;;;;13.15;6.00;;;;;;;;;;6214594;23;20035;-84
2021/01/25 14:15:44;;;;;;;12.98;6.82;;;;;;;;;;6216389;23;20201;-84
2021/01/25 14:18:14;;;;;;;12.15;6.53;;;;;;;;;;6231668;22;20079;-82
2021/01/25 14:20:40;;;;;;;13.65;6.45;;;;;;;;;;6233846;22;20028;-83
2021/01/25 14:23:08;;;;;;;11.52;5.82;;;;;;;;;;6246714;23;20028;-83
2021/01/25 14:25:37;;;;;;;12.07;5.68;;;;;;;;;;6251366;23;20054;-85
2021/01/25 14:28:05;;;;;;;11.23;6.97;;;;;;;;;;6245740;23;20052;-83
2021/01/25 14:30:32;;;;;;;11.75;6.15;;;;;;;;;;6241333;23;20032;-84
2021/01/25 14:33:02;;;;;;;11.25;5.75;;;;;;;;;;6239079;23;20079;-84
2021/01/25 14:35:30;;;;;;;10.52;5.78;;;;;;;;;;6213196;23;20024;-84
2021/01/25 14:37:56;;;;;;;12.95;6.57;;;;;;;;;;6241327;23;20059;-84